Time;durP1;ratioP1;P1;durP2;ratioP2;P2;SDS_P1;SDS_P2;PMS_P1;PMS_P2;Temp;Humidity;BMP_temperature;BMP_pressure;BME280_temperature;BME280_humidity;BME280_pressure;Samples;Min_cycle;Max_cycle;Signal;HPM_P1;HPM_P2
2022/12/07 00:02:23;;;;;;;5.22;1.35;;;;;;;-142.75;100.00;78452.59;4956768;28;20025;-67
2022/12/07 00:04:49;;;;;;;5.63;1.13;;;;;;;-142.75;100.00;78454.56;4957666;28;20224;-67
2022/12/07 00:07:15;;;;;;;5.43;1.30;;;;;;;-142.75;100.00;78438.81;4958487;28;20358;-67
2022/12/07 00:09:41;;;;;;;4.72;0.98;;;;;;;-142.75;100.00;78417.16;4957531;28;20457;-67
2022/12/07 00:12:07;;;;;;;2.57;0.77;;;;;;;-142.75;100.00;78407.31;4951496;28;20045;-68
2022/12/07 00:14:32;;;;;;;6.07;1.88;;;;;;;-142.75;100.00;78411.25;4962956;28;20418;-67
2022/12/07 00:16:58;;;;;;;4.60;1.50;;;;;;;-142.75;100.00;78395.47;4949387;28;20344;-68
2022/12/07 00:19:23;;;;;;;3.00;0.98;;;;;;;-142.75;100.00;78401.38;4963439;28;20322;-67
2022/12/07 00:21:49;;;;;;;3.03;1.70;;;;;;;-142.75;100.00;78389.56;4951603;28;20327;-67
2022/12/07 00:24:14;;;;;;;4.55;1.02;;;;;;;-142.75;100.00;78385.63;4959504;28;20381;-67
2022/12/07 00:26:42;;;;;;;3.40;1.03;;;;;;;-142.75;100.00;78427.00;4946644;28;20060;-67
2022/12/07 00:29:19;;;;;;;5.17;1.00;;;;;;;-142.75;100.00;78440.78;4951781;28;20025;-67
2022/12/07 00:31:45;;;;;;;5.90;1.17;;;;;;;-142.75;100.00;78428.97;4950947;28;20048;-67
2022/12/07 00:34:17;;;;;;;3.58;1.00;;;;;;;-142.75;100.00;78428.97;4957336;28;20386;-67
2022/12/07 00:36:42;;;;;;;3.30;0.93;;;;;;;-142.75;100.00;78452.59;4952195;28;20033;-67
2022/12/07 00:39:08;;;;;;;7.40;1.17;;;;;;;-142.75;100.00;78425.03;4948086;28;20187;-67
2022/12/07 00:41:34;;;;;;;4.88;1.33;;;;;;;-142.75;100.00;78405.34;4954431;28;20340;-67
2022/12/07 00:43:59;;;;;;;8.45;1.20;;;;;;;-142.75;100.00;78401.38;4956806;28;20039;-67
2022/12/07 00:46:25;;;;;;;2.80;0.98;;;;;;;-142.75;100.00;78438.81;4958891;28;20037;-68
2022/12/07 00:48:52;;;;;;;2.40;1.03;;;;;;;-142.75;100.00;78438.81;4950685;28;20030;-67
2022/12/07 00:51:19;;;;;;;2.03;0.87;;;;;;;-142.75;100.00;78423.06;4948976;28;20083;-67
2022/12/07 00:53:45;;;;;;;10.27;1.20;;;;;;;-142.75;100.00;78434.88;4951714;28;20055;-67
2022/12/07 00:56:20;;;;;;;5.07;1.08;;;;;;;-142.75;100.00;78425.03;4964241;28;20355;-66
2022/12/07 00:58:57;;;;;;;6.33;1.30;;;;;;;-142.75;100.00;78438.81;4954709;28;20063;-67
2022/12/07 01:01:23;;;;;;;6.63;1.37;;;;;;;-142.75;100.00;78466.38;4963340;28;20560;-66
2022/12/07 01:03:49;;;;;;;4.53;1.23;;;;;;;-142.75;100.00;78466.38;4957764;28;20022;-67
2022/12/07 01:06:16;;;;;;;5.03;1.30;;;;;;;-142.75;100.00;78495.94;4961285;28;20400;-67
2022/12/07 01:08:42;;;;;;;2.03;0.97;;;;;;;-142.75;100.00;78472.28;4957732;28;20060;-67
2022/12/07 01:11:11;;;;;;;2.50;1.02;;;;;;;-142.75;100.00;78472.28;4954715;28;20402;-67
2022/12/07 01:13:36;;;;;;;5.53;1.20;;;;;;;-142.75;100.00;78476.22;4959946;28;20557;-67
2022/12/07 01:16:04;;;;;;;6.35;1.50;;;;;;;-142.75;100.00;78464.41;4952911;28;20022;-67
2022/12/07 01:18:31;;;;;;;5.70;0.87;;;;;;;-142.75;100.00;78464.41;4950497;28;20022;-66
2022/12/07 01:21:06;;;;;;;4.37;0.70;;;;;;;-142.75;100.00;78464.41;4948714;28;20586;-67
2022/12/07 01:23:33;;;;;;;1.73;0.90;;;;;;;-142.75;100.00;78488.03;4952708;28;20022;-67
2022/12/07 01:26:00;;;;;;;4.53;1.27;;;;;;;-142.75;100.00;78486.06;4954815;28;20061;-67
2022/12/07 01:28:26;;;;;;;2.27;0.97;;;;;;;-142.75;100.00;78468.34;4951153;28;20053;-67
2022/12/07 01:31:05;;;;;;;;;;;;;;;-142.75;100.00;78470.31;4959168;28;20030;-67
2022/12/07 01:33:35;;;;;;;5.63;1.00;;;;;;;-142.75;100.00;78488.03;4955485;28;20020;-68
2022/12/07 01:36:05;;;;;;;6.30;1.07;;;;;;;-142.75;100.00;78464.41;4955440;28;20021;-67
2022/12/07 01:38:32;;;;;;;3.27;1.10;;;;;;;-142.75;100.00;78450.63;4956674;28;20026;-67
2022/12/07 01:40:59;;;;;;;3.97;1.10;;;;;;;-142.75;100.00;78468.34;4953562;28;20047;-68
2022/12/07 01:43:27;;;;;;;6.33;1.00;;;;;;;-142.75;100.00;78458.50;4952216;28;20098;-67
2022/12/07 01:45:52;;;;;;;3.60;1.20;;;;;;;-142.75;100.00;78448.66;4956483;28;20026;-67
2022/12/07 01:48:24;;;;;;;5.88;1.00;;;;;;;-142.75;100.00;78444.72;4953527;28;20276;-67
2022/12/07 01:50:53;;;;;;;2.43;0.87;;;;;;;-142.75;100.00;78472.28;4949422;28;20083;-67
2022/12/07 01:53:21;;;;;;;2.93;0.90;;;;;;;-142.75;100.00;78480.16;4953414;28;20192;-67
2022/12/07 01:55:51;;;;;;;4.07;0.80;;;;;;;-142.75;100.00;78493.97;4949940;28;20029;-67
2022/12/07 01:58:17;;;;;;;6.23;1.10;;;;;;;-142.75;100.00;78495.94;4955293;28;20483;-67
2022/12/07 02:00:43;;;;;;;3.70;0.70;;;;;;;-142.75;100.00;78488.03;4948342;28;20095;-67
2022/12/07 02:03:15;;;;;;;3.15;0.88;;;;;;;-142.75;100.00;78509.72;4951788;28;20502;-67
2022/12/07 02:05:42;;;;;;;1.97;0.80;;;;;;;-142.75;100.00;78491.97;4946145;28;20030;-67
2022/12/07 02:08:10;;;;;;;3.37;0.77;;;;;;;-142.75;100.00;78515.63;4960115;28;20132;-67
2022/12/07 02:10:36;;;;;;;5.90;1.17;;;;;;;-142.75;100.00;78511.69;4954421;28;20111;-67
2022/12/07 02:13:06;;;;;;;5.70;0.98;;;;;;;-142.75;100.00;78519.56;4950930;28;20479;-68
2022/12/07 02:15:52;;;;;;;7.33;0.80;;;;;;;-142.75;100.00;78484.09;4948795;28;20559;-67
2022/12/07 02:18:18;;;;;;;5.55;0.98;;;;;;;-142.75;100.00;78503.81;4951665;28;20057;-67
2022/12/07 02:21:09;;;;;;;3.85;0.95;;;;;;;-142.75;100.00;78476.22;4953516;28;20350;-68
2022/12/07 02:23:56;;;;;;;8.13;0.90;;;;;;;-142.75;100.00;78452.59;4949265;28;20033;-67
2022/12/07 02:26:36;;;;;;;;;;;;;;;-142.75;100.00;78440.78;4945824;28;20056;-67
2022/12/07 02:29:43;;;;;;;3.63;0.50;;;;;;;-142.75;100.00;78417.16;4968727;28;19913;-68
2022/12/07 02:32:43;;;;;;;4.20;0.80;;;;;;;-142.75;100.00;78409.28;4901131;28;20069;-65
2022/12/07 02:35:11;;;;;;;2.50;0.50;;;;;;;-142.75;100.00;78399.44;4918858;28;20037;-67
2022/12/07 02:37:40;;;;;;;3.37;0.73;;;;;;;-142.75;100.00;78403.38;4949756;28;20674;-67
2022/12/07 02:40:19;;;;;;;4.60;0.70;;;;;;;-142.75;100.00;78425.03;4954148;28;20037;-67
2022/12/07 02:42:53;;;;;;;3.70;0.77;;;;;;;-142.75;100.00;78450.63;4952440;28;20064;-67
2022/12/07 02:45:22;;;;;;;1.67;0.60;;;;;;;-142.75;100.00;78509.72;4948676;28;20554;-66
2022/12/07 02:47:53;;;;;;;3.03;0.60;;;;;;;-142.75;100.00;78507.75;4952042;28;20026;-67
2022/12/07 02:50:20;;;;;;;2.17;0.60;;;;;;;-142.75;100.00;78513.66;4951014;28;20025;-67
2022/12/07 02:52:46;;;;;;;3.90;0.70;;;;;;;-142.75;100.00;78519.56;4951969;28;20033;-67
2022/12/07 02:55:13;;;;;;;1.52;0.60;;;;;;;-142.75;100.00;78535.31;4958293;28;20327;-67
2022/12/07 02:57:49;;;;;;;2.63;0.70;;;;;;;-142.75;100.00;78521.53;4949739;28;20025;-67
2022/12/07 03:00:18;;;;;;;5.22;0.65;;;;;;;-142.75;100.00;78529.41;4952855;28;20186;-67
2022/12/07 03:03:09;;;;;;;5.60;0.90;;;;;;;-142.75;100.00;78519.56;4955290;28;20140;-67
2022/12/07 03:06:17;;;;;;;1.43;0.57;;;;;;;-142.75;100.00;78499.88;4955321;28;20025;-67
2022/12/07 03:08:55;;;;;;;5.10;1.20;;;;;;;-142.75;100.00;78474.25;4915750;28;20161;-67
2022/12/07 03:11:25;;;;;;;4.37;0.70;;;;;;;-142.75;100.00;78464.41;4950737;28;20029;-67
2022/12/07 03:14:29;;;;;;;4.53;0.90;;;;;;;-142.75;100.00;78446.69;4948156;28;20026;-67
2022/12/07 03:17:10;;;;;;;4.20;0.50;;;;;;;-142.75;100.00;78468.34;4912559;28;20042;-67
2022/12/07 03:19:37;;;;;;;3.00;0.70;;;;;;;-142.75;100.00;78488.03;4953721;28;20547;-67
2022/12/07 03:22:10;;;;;;;2.57;0.70;;;;;;;-142.75;100.00;78488.03;4944049;28;20566;-67
2022/12/07 03:24:43;;;;;;;9.33;0.80;;;;;;;-142.75;100.00;78517.59;4947652;28;20040;-67
2022/12/07 03:27:22;;;;;;;3.10;0.53;;;;;;;-142.75;100.00;78521.53;4952294;28;20083;-67
2022/12/07 03:30:00;;;;;;;7.33;0.73;;;;;;;-142.75;100.00;78531.38;4955286;28;20030;-67
2022/12/07 03:32:30;;;;;;;3.33;0.60;;;;;;;-142.75;100.00;78507.75;4947069;28;20581;-67
2022/12/07 03:35:02;;;;;;;1.60;0.37;;;;;;;-142.75;100.00;78478.19;4956137;28;20144;-68
2022/12/07 03:37:36;;;;;;;2.40;0.60;;;;;;;-142.75;100.00;78454.56;4950714;28;20088;-67
2022/12/07 03:40:07;;;;;;;2.40;0.60;;;;;;;-142.75;100.00;78444.72;4954715;28;20152;-67
2022/12/07 03:42:33;;;;;;;1.83;0.50;;;;;;;-142.75;100.00;78434.88;4957680;28;20601;-67
2022/12/07 03:45:03;;;;;;;6.18;0.65;;;;;;;-142.75;100.00;78446.69;4955574;28;20064;-68
2022/12/07 03:47:42;;;;;;;3.23;0.80;;;;;;;-142.75;100.00;78448.66;4953302;28;20014;-67
2022/12/07 03:50:43;;;;;;;2.27;0.70;;;;;;;-142.75;100.00;78444.72;4947749;28;20022;-67
2022/12/07 03:53:18;;;;;;;2.20;0.57;;;;;;;-142.75;100.00;78452.59;4899984;28;20145;-67
2022/12/07 03:55:46;;;;;;;4.17;0.67;;;;;;;-142.75;100.00;78444.72;4944075;28;20057;-67
2022/12/07 03:58:17;;;;;;;1.73;0.57;;;;;;;-142.75;100.00;78456.53;4946244;28;20057;-67
2022/12/07 04:00:43;;;;;;;3.60;0.40;;;;;;;-142.75;100.00;78452.59;4946985;28;20033;-67
2022/12/07 04:03:09;;;;;;;;;;;;;;;-142.75;100.00;78428.97;4947920;28;20017;-69
2022/12/07 04:05:35;;;;;;;3.17;0.60;;;;;;;-142.75;100.00;78438.81;4953933;28;20276;-67
2022/12/07 04:08:01;;;;;;;3.90;1.33;;;;;;;-142.75;100.00;78444.72;4947082;28;20046;-68
2022/12/07 04:10:26;;;;;;;1.73;0.50;;;;;;;-142.75;100.00;78464.41;4947666;28;20264;-67
2022/12/07 04:12:52;;;;;;;5.38;0.98;;;;;;;-142.75;100.00;78444.72;4946144;28;20331;-67
2022/12/07 04:15:17;;;;;;;4.20;0.65;;;;;;;-142.75;100.00;78440.78;4961983;28;20319;-67
2022/12/07 04:17:43;;;;;;;3.25;0.70;;;;;;;-142.75;100.00;78440.78;4956887;28;20107;-66
2022/12/07 04:20:09;;;;;;;3.75;0.85;;;;;;;-142.75;100.00;78438.81;4950132;28;20119;-66
2022/12/07 04:22:35;;;;;;;1.30;0.50;;;;;;;-142.75;100.00;78432.91;4955779;28;20056;-68
2022/12/07 04:25:00;;;;;;;3.78;0.85;;;;;;;-142.75;100.00;78452.59;4956620;28;20487;-67
2022/12/07 04:27:26;;;;;;;4.88;0.80;;;;;;;-142.75;100.00;78456.53;4960261;28;20057;-67
2022/12/07 04:29:51;;;;;;;2.47;0.80;;;;;;;-142.75;100.00;78444.72;4958496;28;20359;-67
2022/12/07 04:32:17;;;;;;;2.65;0.88;;;;;;;-142.75;100.00;78452.59;4948143;28;20338;-67
2022/12/07 04:34:42;;;;;;;4.28;0.95;;;;;;;-142.75;100.00;78452.59;4950689;28;20343;-68
2022/12/07 04:37:08;;;;;;;5.28;0.80;;;;;;;-142.75;100.00;78464.41;4951542;28;20377;-67
2022/12/07 04:39:34;;;;;;;5.15;1.25;;;;;;;-142.75;100.00;78456.53;4954139;28;20556;-67
2022/12/07 04:42:00;;;;;;;7.15;0.98;;;;;;;-142.75;100.00;78468.34;4959977;28;20429;-68
2022/12/07 04:44:27;;;;;;;4.57;1.03;;;;;;;-142.75;100.00;78468.34;4955921;28;20091;-67
2022/12/07 04:46:54;;;;;;;5.83;0.90;;;;;;;-142.75;100.00;78470.31;4954297;28;20025;-67
2022/12/07 04:49:20;;;;;;;5.30;0.67;;;;;;;-142.75;100.00;78478.19;4954436;28;20045;-68
2022/12/07 04:51:47;;;;;;;4.37;0.70;;;;;;;-142.75;100.00;78486.06;4956466;28;20025;-67
2022/12/07 04:54:14;;;;;;;2.60;0.50;;;;;;;-142.75;100.00;78486.06;4958520;28;20136;-68
2022/12/07 04:56:39;;;;;;;5.80;0.70;;;;;;;-142.75;100.00;78515.63;4959936;28;20026;-67
2022/12/07 04:59:05;;;;;;;7.72;0.90;;;;;;;-142.75;100.00;78511.69;4962678;28;20363;-68
2022/12/07 05:01:32;;;;;;;1.52;0.43;;;;;;;-142.75;100.00;78521.53;4952166;28;20412;-67
2022/12/07 05:03:57;;;;;;;;;;;;;;;-142.75;100.00;78507.75;4958500;28;20624;-66
2022/12/07 05:06:23;;;;;;;6.20;0.93;;;;;;;-142.75;100.00;78501.84;4953537;28;19956;-67
2022/12/07 05:08:48;;;;;;;3.67;0.63;;;;;;;-142.75;100.00;78491.97;4956400;28;20037;-67
2022/12/07 05:11:37;;;;;;;2.40;0.63;;;;;;;-142.75;100.00;78484.09;4953294;28;20033;-67
2022/12/07 05:14:02;;;;;;;3.83;0.47;;;;;;;-142.75;100.00;78478.19;4965520;28;20446;-68
2022/12/07 05:16:28;;;;;;;3.67;0.80;;;;;;;-142.75;100.00;78460.47;4965317;28;20022;-67
2022/12/07 05:18:53;;;;;;;4.85;0.60;;;;;;;-142.75;100.00;78440.78;4953827;28;20343;-67
2022/12/07 05:21:19;;;;;;;2.70;0.70;;;;;;;-142.75;100.00;78436.84;4945785;28;20296;-68
2022/12/07 05:23:45;;;;;;;8.93;1.02;;;;;;;-142.75;100.00;78421.09;4944147;28;20477;-68
2022/12/07 05:26:10;;;;;;;7.30;0.60;;;;;;;-142.75;100.00;78421.09;4946014;28;20417;-67
2022/12/07 05:28:36;;;;;;;5.07;0.70;;;;;;;-142.75;100.00;78417.16;4959475;28;20276;-66
2022/12/07 05:31:02;;;;;;;8.38;0.55;;;;;;;-142.75;100.00;78409.28;4956017;28;20061;-67
2022/12/07 05:33:27;;;;;;;2.97;0.50;;;;;;;-142.75;100.00;78417.16;4963170;28;20354;-67
2022/12/07 05:35:53;;;;;;;2.63;0.82;;;;;;;-142.75;100.00;78411.25;4963078;28;20211;-67
2022/12/07 05:38:18;;;;;;;9.15;0.65;;;;;;;-142.75;100.00;78405.34;4952717;28;20300;-67
2022/12/07 05:40:44;;;;;;;3.55;0.70;;;;;;;-142.75;100.00;78395.47;4951580;28;20433;-67
2022/12/07 05:43:10;;;;;;;3.92;0.80;;;;;;;-142.75;100.00;78401.38;4951971;28;20393;-67
2022/12/07 05:45:36;;;;;;;6.15;0.82;;;;;;;-142.75;100.00;78401.38;4953526;28;20571;-66
2022/12/07 05:48:01;;;;;;;3.90;0.45;;;;;;;-142.75;100.00;78413.22;4955436;28;20115;-67
2022/12/07 05:50:27;;;;;;;2.25;0.40;;;;;;;-142.75;100.00;78425.03;4958200;28;20078;-67
2022/12/07 05:52:53;;;;;;;2.03;0.50;;;;;;;-142.75;100.00;78425.03;4947871;28;20606;-66
2022/12/07 05:55:19;;;;;;;8.32;1.02;;;;;;;-142.75;100.00;78432.91;4950824;28;20026;-66
2022/12/07 05:59:22;;;;;;;6.75;0.60;;;;;;;-142.75;100.00;78432.91;4955250;28;20326;-65
2022/12/07 06:00:30;;;;;;;4.13;1.10;;;;;;;-142.75;100.00;78440.78;4950898;28;20398;-67
2022/12/07 06:02:55;;;;;;;3.05;1.02;;;;;;;-142.75;100.00;78442.75;4943984;28;20875;-67
2022/12/07 06:05:21;;;;;;;8.00;1.80;;;;;;;-142.75;100.00;78448.66;4951757;28;20335;-67
2022/12/07 06:07:46;;;;;;;4.90;1.60;;;;;;;-142.75;100.00;78442.75;4960597;28;20338;-67
2022/12/07 06:10:12;;;;;;;7.55;1.67;;;;;;;-142.75;100.00;78476.22;4963485;28;20304;-67
2022/12/07 06:12:39;;;;;;;6.65;1.27;;;;;;;-142.75;100.00;78460.47;4947800;28;20308;-67
2022/12/07 06:15:05;;;;;;;3.53;1.20;;;;;;;-142.75;100.00;78452.59;4955851;28;20022;-66
2022/12/07 06:17:31;;;;;;;4.60;1.30;;;;;;;-142.75;100.00;78472.28;4950292;28;20034;-66
2022/12/07 06:19:57;;;;;;;8.60;1.50;;;;;;;-142.75;100.00;78478.19;4953323;28;20025;-67
2022/12/07 06:22:22;;;;;;;8.23;1.55;;;;;;;-142.75;100.00;78533.34;4943221;28;20336;-66
2022/12/07 06:24:48;;;;;;;5.32;1.23;;;;;;;-142.75;100.00;78566.81;4953098;28;20196;-67
2022/12/07 06:27:13;;;;;;;8.70;2.17;;;;;;;-142.75;100.00;78570.75;4943737;28;20505;-67
2022/12/07 06:29:39;;;;;;;6.88;0.98;;;;;;;-142.75;100.00;78570.75;4957561;28;20345;-66
2022/12/07 06:32:05;;;;;;;3.28;0.80;;;;;;;-142.75;100.00;78566.81;4952304;28;20355;-67
2022/12/07 06:34:30;;;;;;;8.20;0.70;;;;;;;-142.75;100.00;78556.97;4945717;28;20343;-67
2022/12/07 06:36:56;;;;;;;9.45;0.85;;;;;;;-142.75;100.00;78537.28;4941850;28;20313;-67
2022/12/07 06:39:24;;;;;;;5.35;1.33;;;;;;;-142.75;100.00;78523.50;4945591;28;20030;-67
2022/12/07 06:41:51;;;;;;;1.80;0.70;;;;;;;-142.75;100.00;78517.59;4943465;28;20022;-67
2022/12/07 06:44:17;;;;;;;5.07;0.77;;;;;;;-142.75;100.00;78517.59;4955968;28;20056;-67
2022/12/07 06:46:43;;;;;;;1.48;0.55;;;;;;;-142.75;100.00;78509.72;4954925;28;20497;-67
2022/12/07 06:49:09;;;;;;;3.95;0.88;;;;;;;-142.75;100.00;78537.28;4948306;28;20397;-67
2022/12/07 06:51:40;;;;;;;2.28;0.80;;;;;;;-142.75;100.00;78527.44;4951737;28;20296;-65
2022/12/07 06:54:07;;;;;;;5.87;0.93;;;;;;;-142.75;100.00;78511.69;4960730;28;20498;-66
2022/12/07 06:56:32;;;;;;;6.87;1.10;;;;;;;-142.75;100.00;78499.88;4954149;28;20551;-66
2022/12/07 06:58:58;;;;;;;3.80;1.02;;;;;;;-142.75;100.00;78503.81;4960429;28;20029;-67
2022/12/07 07:01:23;;;;;;;3.85;1.00;;;;;;;-142.75;100.00;78517.59;4946914;28;20354;-67
2022/12/07 07:03:49;;;;;;;6.57;1.08;;;;;;;-142.75;100.00;78519.56;4942968;28;20335;-67
2022/12/07 07:06:15;;;;;;;5.93;1.10;;;;;;;-142.75;100.00;78588.50;4950402;28;20381;-67
2022/12/07 07:08:41;;;;;;;3.58;1.25;;;;;;;-142.75;100.00;78614.09;4948724;28;20896;-66
2022/12/07 07:11:07;;;;;;;1.92;0.70;;;;;;;-142.75;100.00;78606.22;4953976;28;20031;-66
2022/12/07 07:13:33;;;;;;;8.00;1.47;;;;;;;-142.75;100.00;78578.63;4960127;28;20056;-67
2022/12/07 07:15:59;;;;;;;4.38;1.02;;;;;;;-142.75;100.00;78562.88;4951772;28;20363;-67
2022/12/07 07:18:25;;;;;;;5.65;1.45;;;;;;;-142.75;100.00;78572.72;4952254;28;20580;-67
2022/12/07 07:20:51;;;;;;;;;;;;;;;-142.75;100.00;78558.94;4949347;28;20064;-67
2022/12/07 07:23:17;;;;;;;1.67;0.73;;;;;;;-142.75;100.00;78558.94;4948212;28;20304;-66
2022/12/07 07:25:42;;;;;;;4.18;1.02;;;;;;;-142.75;100.00;78535.31;4954018;28;20303;-66
2022/12/07 07:28:08;;;;;;;7.10;1.00;;;;;;;-142.75;100.00;78503.81;4952356;28;20056;-66
2022/12/07 07:30:33;;;;;;;6.18;1.48;;;;;;;-142.75;100.00;78509.72;4958681;28;20458;-66
2022/12/07 07:33:00;;;;;;;6.90;1.30;;;;;;;-142.75;100.00;78511.69;4952383;28;20049;-66
2022/12/07 07:35:27;;;;;;;10.00;1.17;;;;;;;-142.75;100.00;78490.00;4957853;28;20602;-66
2022/12/07 07:37:54;;;;;;;6.93;1.23;;;;;;;-142.75;100.00;78478.19;4943232;28;20029;-67
2022/12/07 07:40:20;;;;;;;6.70;0.87;;;;;;;-142.75;100.00;78482.13;4953352;28;20574;-67
2022/12/07 07:42:51;;;;;;;4.65;1.45;;;;;;;-142.75;100.00;78476.22;4961241;28;20030;-68
2022/12/07 07:45:17;;;;;;;4.27;1.23;;;;;;;-142.75;100.00;78460.47;4943825;28;20112;-68
2022/12/07 07:47:42;;;;;;;;;;;;;;;-142.75;100.00;78456.53;4949405;28;20025;-67
2022/12/07 07:50:08;;;;;;;3.13;1.10;;;;;;;-142.75;100.00;78472.28;4950398;28;20365;-67
2022/12/07 07:52:34;;;;;;;;;;;;;;;-142.75;100.00;78468.34;4954992;28;20057;-68
2022/12/07 07:54:59;;;;;;;3.73;0.90;;;;;;;-142.75;100.00;78472.28;4951643;28;20211;-68
2022/12/07 07:57:25;;;;;;;3.08;1.20;;;;;;;-142.75;100.00;78478.19;4954504;28;20378;-68
2022/12/07 07:59:50;;;;;;;5.28;1.05;;;;;;;-142.75;100.00;78464.41;4963114;28;20393;-67
2022/12/07 08:02:18;;;;;;;5.32;1.10;;;;;;;-142.75;100.00;78472.28;4966305;28;20304;-68
2022/12/07 08:04:44;;;;;;;5.33;1.00;;;;;;;-142.75;100.00;78470.31;5005302;28;20030;-67
2022/12/07 08:07:11;;;;;;;6.10;1.10;;;;;;;-142.75;100.00;78503.81;5015009;28;20033;-65
2022/12/07 08:09:37;;;;;;;4.93;1.40;;;;;;;-142.75;100.00;78509.72;5013581;28;20799;-68
2022/12/07 08:12:02;;;;;;;10.48;2.45;;;;;;;-142.75;100.00;78505.78;5014403;28;20104;-68
2022/12/07 08:14:28;;;;;;;6.07;1.80;;;;;;;-142.75;100.00;78499.88;5014770;28;20025;-67
2022/12/07 08:16:54;;;;;;;14.75;6.68;;;;;;;-142.75;100.00;78480.16;5013646;28;20115;-67
2022/12/07 08:19:19;;;;;;;12.38;6.60;;;;;;;-142.75;100.00;78468.34;4959741;28;20053;-68
2022/12/07 08:21:45;;;;;;;13.43;6.05;;;;;;;-142.75;100.00;78462.44;4955514;28;20442;-68
2022/12/07 08:24:10;;;;;;;17.00;5.75;;;;;;;-142.75;100.00;78466.38;4959641;28;20025;-68
2022/12/07 08:26:36;;;;;;;10.23;4.28;;;;;;;-142.75;100.00;78472.28;4965276;28;20409;-67
2022/12/07 08:29:01;;;;;;;5.40;2.05;;;;;;;-142.75;100.00;78446.69;4962557;28;20025;-68
2022/12/07 08:31:28;;;;;;;5.57;1.40;;;;;;;-142.75;100.00;78423.06;4964198;28;20474;-68
2022/12/07 08:33:57;;;;;;;9.80;4.03;;;;;;;-142.75;100.00;78403.38;4961532;28;20029;-67
2022/12/07 08:36:22;;;;;;;12.43;7.00;;;;;;;-142.75;100.00;78405.34;4960056;28;20090;-68
2022/12/07 08:38:48;;;;;;;5.60;2.22;;;;;;;-142.75;100.00;78346.25;4961294;28;20340;-68
2022/12/07 08:41:14;;;;;;;10.30;5.10;;;;;;;-142.75;100.00;78293.06;4950775;28;20022;-69
2022/12/07 08:43:39;;;;;;;9.88;3.55;;;;;;;-142.75;100.00;78235.97;4953133;28;20310;-68
2022/12/07 08:46:26;;;;;;;5.35;1.90;;;;;;;-142.75;100.00;78212.34;4958653;28;20323;-68
2022/12/07 08:49:04;;;;;;;3.53;1.48;;;;;;;-142.75;100.00;78155.22;4959565;28;20160;-68
2022/12/07 08:51:30;;;;;;;4.53;2.20;;;;;;;-142.75;100.00;78119.78;4964064;28;20580;-68
2022/12/07 08:53:58;;;;;;;3.03;1.77;;;;;;;-142.75;100.00;78157.19;4964661;28;20040;-68
2022/12/07 08:56:24;;;;;;;4.77;1.23;;;;;;;-142.75;100.00;78133.56;4955396;28;20176;-69
2022/12/07 08:58:50;;;;;;;3.10;1.33;;;;;;;-142.75;100.00;78161.13;4958152;28;20040;-68
2022/12/07 09:01:15;;;;;;;5.55;1.23;;;;;;;-142.75;100.00;78139.47;4957985;28;20433;-68
2022/12/07 09:03:41;;;;;;;5.50;1.20;;;;;;;-142.75;100.00;78178.84;4950088;28;20339;-68
2022/12/07 09:06:07;;;;;;;4.82;1.20;;;;;;;-142.75;100.00;78088.28;4963027;28;20343;-67
2022/12/07 09:08:40;;;;;;;8.95;1.30;;;;;;;-142.75;100.00;78039.03;4953004;28;20022;-68
2022/12/07 09:11:06;;;;;;;4.35;1.00;;;;;;;-142.75;100.00;78009.50;4953846;28;20030;-68
2022/12/07 09:13:31;;;;;;;4.20;1.48;;;;;;;-142.75;100.00;77964.22;5008701;28;20025;-68
2022/12/07 09:15:57;;;;;;;5.60;0.88;;;;;;;-142.75;100.00;77932.72;5010084;28;20111;-66
2022/12/07 09:18:22;;;;;;;4.18;1.23;;;;;;;-142.75;100.00;77871.66;5008778;28;20129;-68
2022/12/07 09:20:47;;;;;;;4.38;1.17;;;;;;;-142.75;100.00;77814.56;5010257;28;20175;-67
2022/12/07 09:23:13;;;;;;;10.18;3.22;;;;;;;-142.75;100.00;77771.25;5003793;28;20037;-68
2022/12/07 09:25:38;;;;;;;5.07;0.90;;;;;;;-142.75;100.00;77763.38;5005810;28;20035;-67
2022/12/07 09:28:03;;;;;;;5.95;1.10;;;;;;;-142.75;100.00;77700.34;5009531;28;20034;-67
2022/12/07 09:30:29;;;;;;;6.07;1.02;;;;;;;-142.75;100.00;77733.84;5005720;28;20383;-67
2022/12/07 09:32:55;;;;;;;4.68;1.05;;;;;;;-142.75;100.00;77759.44;5010631;28;20041;-67
2022/12/07 09:35:20;;;;;;;4.82;0.82;;;;;;;-142.75;100.00;77857.88;5005192;28;20026;-67
2022/12/07 09:37:46;;;;;;;5.15;1.08;;;;;;;-142.75;100.00;77901.19;5018261;28;20116;-66
2022/12/07 09:40:13;;;;;;;11.50;2.15;;;;;;;-142.75;100.00;77946.50;5003661;28;20168;-65
2022/12/07 09:42:46;;;;;;;9.50;2.95;;;;;;;-142.75;100.00;77979.97;5011104;28;20053;-68
2022/12/07 09:45:15;;;;;;;8.60;2.83;;;;;;;-142.75;100.00;78031.16;5009210;28;20064;-67
2022/12/07 09:47:41;;;;;;;8.07;2.65;;;;;;;-142.75;100.00;78080.41;5004798;28;20514;-67
2022/12/07 09:50:14;;;;;;;2.70;0.65;;;;;;;-142.75;100.00;78094.19;5008283;28;20029;-66
2022/12/07 09:52:41;;;;;;;3.85;0.52;;;;;;;-142.75;100.00;78088.28;5011870;28;20108;-67
2022/12/07 09:55:14;;;;;;;3.88;0.95;;;;;;;-142.75;100.00;78141.44;5018996;28;20723;-68
2022/12/07 09:57:41;;;;;;;2.17;0.63;;;;;;;-142.75;100.00;78167.03;5020982;28;20159;-68
2022/12/07 10:00:13;;;;;;;2.33;0.50;;;;;;;-142.75;100.00;78186.75;5020887;28;20056;-67
2022/12/07 10:02:45;;;;;;;4.03;0.63;;;;;;;-142.75;100.00;78127.66;5021726;28;20762;-67
2022/12/07 10:05:15;;;;;;;2.27;0.87;;;;;;;-142.75;100.00;78106.00;5011924;28;20069;-68
2022/12/07 10:07:41;;;;;;;4.43;0.93;;;;;;;-142.75;100.00;78086.31;5011806;28;20040;-68
2022/12/07 10:10:14;;;;;;;14.95;7.43;;;;;;;-142.75;100.00;78003.59;5017152;28;20033;-67
2022/12/07 10:13:02;;;;;;;3.73;1.80;;;;;;;-142.75;100.00;77920.91;5018239;28;20032;-67
2022/12/07 10:15:47;;;;;;;3.47;1.60;;;;;;;-142.75;100.00;77822.44;4999777;28;20574;-68
2022/12/07 10:18:33;;;;;;;2.15;1.05;;;;;;;-142.75;100.00;77716.09;5009713;28;20029;-67
2022/12/07 10:21:13;;;;;;;5.28;1.23;;;;;;;-142.75;100.00;77647.19;5030296;28;20061;-67
2022/12/07 10:23:42;;;;;;;10.07;4.40;;;;;;;-142.75;100.00;77609.78;5011463;28;20030;-68
2022/12/07 10:26:28;;;;;;;14.02;4.95;;;;;;;-142.75;100.00;77594.03;5008976;28;20886;-66
2022/12/07 10:28:54;;;;;;;6.03;1.58;;;;;;;-142.75;100.00;77639.31;5012375;28;20109;-65
2022/12/07 10:31:22;;;;;;;9.40;2.45;;;;;;;-142.75;100.00;77647.19;5011529;28;20044;-68
2022/12/07 10:33:52;;;;;;;8.13;5.43;;;;;;;-142.75;100.00;77706.25;5012616;28;20037;-65
2022/12/07 10:36:35;;;;;;;4.97;1.42;;;;;;;-142.75;100.00;77769.28;5012857;28;20387;-66
2022/12/07 10:39:20;;;;;;;4.95;2.70;;;;;;;-142.75;100.00;77810.63;5010353;28;20596;-68
2022/12/07 10:42:00;;;;;;;2.47;0.70;;;;;;;-142.75;100.00;77842.13;4979042;28;20079;-68
2022/12/07 10:44:32;;;;;;;7.60;1.45;;;;;;;-142.75;100.00;77814.56;4958466;28;20030;-68
2022/12/07 10:47:19;;;;;;;6.85;1.50;;;;;;;-142.75;100.00;77787.00;4949186;28;20053;-68
2022/12/07 10:50:03;;;;;;;2.85;1.23;;;;;;;-142.75;100.00;77798.81;4947165;28;20589;-68
2022/12/07 10:53:00;;;;;;;2.75;0.75;;;;;;;-142.75;100.00;77741.72;4949607;28;20585;-68
2022/12/07 10:55:44;;;;;;;;;;;;;;;-142.75;100.00;77668.84;4934582;28;20605;-66
2022/12/07 10:58:16;;;;;;;4.70;1.35;;;;;;;-142.75;100.00;77607.81;4963057;28;20043;-68
2022/12/07 11:00:56;;;;;;;11.00;1.52;;;;;;;-142.75;100.00;77523.16;4952792;28;20124;-68
2022/12/07 11:03:46;;;;;;;3.63;0.85;;;;;;;-142.75;100.00;77456.22;4960595;28;20137;-68
2022/12/07 11:06:27;;;;;;;4.78;0.70;;;;;;;-142.75;100.00;77452.25;4966381;28;20022;-68
2022/12/07 11:09:12;;;;;;;5.22;0.98;;;;;;;-142.75;100.00;77405.00;4942471;28;20057;-68
2022/12/07 11:12:17;;;;;;;3.90;0.85;;;;;;;-142.75;100.00;77434.53;4955997;28;20025;-67
2022/12/07 11:15:01;;;;;;;6.00;0.77;;;;;;;-142.75;100.00;77349.88;4951534;28;20068;-68
2022/12/07 11:18:02;;;;;;;3.10;0.90;;;;;;;-142.75;100.00;77314.44;4961925;28;20075;-67
2022/12/07 11:20:39;;;;;;;6.75;0.93;;;;;;;-142.75;100.00;77397.13;4947275;28;20737;-68
2022/12/07 11:23:33;;;;;;;4.20;0.80;;;;;;;-142.75;100.00;77432.56;4958446;28;20551;-66
2022/12/07 11:25:58;;;;;;;7.03;0.80;;;;;;;-142.75;100.00;77444.38;4956076;28;20030;-68